KSWF/SWF METAR and TAF weather

Enter ICAO airport designator
Station Type Date Time Source
KSWF METAR 2022/06/28 13:45 UTC NOAA

KSWF 281345Z 35010KT 10SM SCT045 21/10 A3015


Station Type Date Time Source
KSWF Decoded METAR 2022/06/28 13:45 UTC NOAA

Newburgh / Stewart, NY, United States (KSWF) 41-30N 074-06W
Jun 28, 2022 - 09:45 AM EDT / 2022.06.28 1345 UTC
Wind: from the N (350 degrees) at 12 MPH (10 KT):0
Visibility: 10 mile(s):0
Sky conditions: partly cloudy
Temperature: 69 F (21 C)
Dew Point: 50 F (10 C)
Relative Humidity: 49%
Pressure (altimeter): 30.15 in. Hg (1020 hPa)
ob: KSWF 281345Z 35010KT 10SM SCT045 21/10 A3015
cycle: 14

Station Type Date Time Source
KSWF TAF 2022/06/28 14:16 UTC NOAA

TAF
AMD KSWF 281414Z 2814/2918 32008KT P6SM SCT050 SCT250
FM290000 VRB04KT P6SM FEW050 FEW250
FM291500 25008KT P6SM FEW050 SCT250
AMD NOT SKED

Example: see airport list